Time;durP1;ratioP1;P1;durP2;ratioP2;P2;SDS_P1;SDS_P2;PMS_P1;PMS_P2;Temp;Humidity;BMP_temperature;BMP_pressure;BME280_temperature;BME280_humidity;BME280_pressure;Samples;Min_cycle;Max_cycle;Signal;HPM_P1;HPM_P2
2023/07/10 00:00:17;;;;;;;13.77;9.17;;;22.50;99.90;;;;;;5053340;28;20487;-70
2023/07/10 00:02:43;;;;;;;10.10;7.73;;;22.50;99.90;;;;;;5053219;28;20913;-70
2023/07/10 00:05:18;;;;;;;9.00;8.10;;;22.60;99.90;;;;;;5052845;28;20409;-70
2023/07/10 00:07:43;;;;;;;8.23;7.40;;;22.60;99.90;;;;;;5052926;28;20557;-70
2023/07/10 00:10:15;;;;;;;9.50;7.00;;;22.70;99.90;;;;;;5053143;28;20894;-70
2023/07/10 00:12:42;;;;;;;10.70;8.50;;;22.80;99.90;;;;;;5053004;28;20663;-69
2023/07/10 00:15:19;;;;;;;8.37;7.30;;;22.80;99.90;;;;;;5052676;28;20814;-69
2023/07/10 00:17:46;;;;;;;12.70;6.77;;;22.90;99.90;;;;;;5052801;28;20785;-69
2023/07/10 00:20:15;;;;;;;15.83;9.80;;;22.90;99.90;;;;;;5052883;28;20401;-69
2023/07/10 00:22:40;;;;;;;9.10;8.30;;;22.90;99.90;;;;;;5052863;28;20807;-70
2023/07/10 00:25:06;;;;;;;17.90;10.67;;;23.00;99.90;;;;;;5052636;28;20455;-70
2023/07/10 00:27:32;;;;;;;9.23;8.30;;;23.00;99.90;;;;;;5052659;28;20195;-70
2023/07/10 00:29:57;;;;;;;13.20;10.23;;;23.00;99.90;;;;;;5052737;28;20177;-71
2023/07/10 00:32:23;;;;;;;12.37;8.80;;;23.00;99.90;;;;;;5052499;28;20179;-70
2023/07/10 00:34:48;;;;;;;10.60;8.63;;;23.00;99.90;;;;;;5052471;28;20206;-70
2023/07/10 00:37:14;;;;;;;12.60;8.10;;;23.00;99.90;;;;;;5052221;28;20187;-69
2023/07/10 00:39:39;;;;;;;11.10;7.93;;;23.00;99.90;;;;;;5052628;28;20648;-69
2023/07/10 00:42:14;;;;;;;10.43;7.77;;;23.00;99.90;;;;;;5052482;28;20178;-70
2023/07/10 00:44:47;;;;;;;11.70;9.50;;;23.00;99.90;;;;;;5052335;28;20177;-69
2023/07/10 00:47:21;;;;;;;10.43;8.50;;;22.90;99.90;;;;;;5052049;28;20440;-70
2023/07/10 00:50:00;;;;;;;12.40;9.00;;;22.90;99.90;;;;;;5052430;28;20980;-69
2023/07/10 00:52:28;;;;;;;15.60;10.37;;;22.90;99.90;;;;;;5052360;28;20482;-69
2023/07/10 00:54:57;;;;;;;12.83;11.03;;;22.90;99.90;;;;;;5052164;28;20461;-69
2023/07/10 00:57:33;;;;;;;13.80;10.93;;;23.00;99.90;;;;;;5051959;28;20472;-70
2023/07/10 01:00:00;;;;;;;13.70;10.17;;;23.00;99.90;;;;;;5052260;28;20401;-69
2023/07/10 01:02:26;;;;;;;20.30;10.50;;;22.90;99.90;;;;;;5052119;28;20536;-69
2023/07/10 01:05:03;;;;;;;13.27;9.27;;;22.90;99.90;;;;;;5052083;28;20433;-69
2023/07/10 01:07:34;;;;;;;11.80;10.60;;;22.90;99.90;;;;;;5051912;28;20440;-70
2023/07/10 01:10:06;;;;;;;13.30;11.23;;;22.90;99.90;;;;;;5052187;28;20405;-70
2023/07/10 01:12:32;;;;;;;11.83;10.73;;;22.90;99.90;;;;;;5052083;28;20401;-70
2023/07/10 01:14:58;;;;;;;13.40;12.03;;;22.90;99.90;;;;;;5051753;28;20488;-69
2023/07/10 01:17:25;;;;;;;13.37;11.10;;;22.90;99.90;;;;;;5051863;28;20445;-70
2023/07/10 01:19:55;;;;;;;14.20;11.83;;;22.80;99.90;;;;;;5051995;28;20170;-70
2023/07/10 01:22:20;;;;;;;13.17;11.77;;;22.80;99.90;;;;;;5051957;28;20488;-70
2023/07/10 01:24:51;;;;;;;13.37;11.43;;;22.80;99.90;;;;;;5051853;28;20997;-70
2023/07/10 01:27:18;;;;;;;18.33;12.20;;;22.80;99.90;;;;;;5051683;28;20190;-70
2023/07/10 01:29:48;;;;;;;14.00;12.30;;;22.80;99.90;;;;;;5053114;28;20420;-70
2023/07/10 01:32:16;;;;;;;14.07;12.77;;;22.70;99.90;;;;;;5058575;28;20405;-70
2023/07/10 01:34:53;;;;;;;18.43;13.37;;;22.70;99.90;;;;;;5057043;28;20449;-70
2023/07/10 01:37:18;;;;;;;13.50;10.80;;;22.70;99.90;;;;;;5058342;28;20509;-70
2023/07/10 01:39:46;;;;;;;12.63;11.33;;;22.60;99.90;;;;;;5058433;28;21012;-69
2023/07/10 01:42:12;;;;;;;14.90;11.83;;;22.60;99.90;;;;;;5058428;28;20745;-70
2023/07/10 01:44:41;;;;;;;17.10;11.67;;;22.60;99.90;;;;;;5058268;28;20396;-70
2023/07/10 01:47:09;;;;;;;15.13;12.27;;;22.60;99.90;;;;;;5058037;28;20515;-69
2023/07/10 01:49:45;;;;;;;13.40;12.10;;;22.50;99.90;;;;;;5058393;28;21160;-70
2023/07/10 01:52:14;;;;;;;16.57;11.10;;;22.50;99.90;;;;;;5058467;28;20758;-70
2023/07/10 01:54:39;;;;;;;18.00;10.27;;;22.40;99.90;;;;;;5058206;28;20453;-70
2023/07/10 01:57:06;;;;;;;12.57;11.37;;;22.40;99.90;;;;;;5058134;28;20960;-70
2023/07/10 01:59:32;;;;;;;12.87;11.07;;;22.40;99.90;;;;;;5058293;28;20250;-70
2023/07/10 02:01:59;;;;;;;15.77;11.00;;;22.40;99.90;;;;;;5058282;28;20517;-70
2023/07/10 02:04:24;;;;;;;18.83;12.57;;;22.40;99.90;;;;;;5058191;28;20167;-70
2023/07/10 02:06:50;;;;;;;18.23;14.17;;;22.30;99.90;;;;;;5057758;28;20457;-70
2023/07/10 02:09:16;;;;;;;13.87;11.63;;;22.20;99.90;;;;;;5057990;28;20589;-69
2023/07/10 02:11:41;;;;;;;16.47;13.77;;;22.20;99.90;;;;;;5058219;28;20177;-70
2023/07/10 02:14:08;;;;;;;24.53;16.80;;;22.20;99.90;;;;;;5058055;28;20248;-70
2023/07/10 02:16:34;;;;;;;21.60;15.53;;;22.10;99.90;;;;;;5057888;28;20562;-69
2023/07/10 02:19:03;;;;;;;21.57;16.13;;;22.10;99.90;;;;;;5058098;28;20523;-69
2023/07/10 02:21:29;;;;;;;17.17;14.60;;;22.10;99.90;;;;;;5058229;28;20777;-69
2023/07/10 02:23:54;;;;;;;19.80;14.20;;;22.00;99.90;;;;;;5058153;28;20491;-69
2023/07/10 02:26:20;;;;;;;19.33;13.10;;;22.00;99.90;;;;;;5057892;28;20258;-70
2023/07/10 02:28:45;;;;;;;13.07;11.50;;;22.00;99.90;;;;;;5057896;28;20194;-70
2023/07/10 02:31:11;;;;;;;17.10;13.67;;;22.00;99.90;;;;;;5058064;28;20206;-70
2023/07/10 02:33:37;;;;;;;17.83;13.10;;;22.00;99.90;;;;;;5057982;28;20194;-70
2023/07/10 02:36:03;;;;;;;17.13;12.87;;;21.90;99.90;;;;;;5057756;28;20163;-70
2023/07/10 02:38:29;;;;;;;16.27;14.03;;;21.90;99.90;;;;;;5057949;28;20532;-69
2023/07/10 02:40:55;;;;;;;14.30;12.70;;;21.90;99.90;;;;;;5057130;28;20462;-69
2023/07/10 02:43:20;;;;;;;17.23;12.60;;;21.90;99.90;;;;;;5053869;28;20156;-69
2023/07/10 02:45:46;;;;;;;13.40;12.10;;;21.90;99.90;;;;;;5054427;28;20790;-68
2023/07/10 02:48:11;;;;;;;14.03;12.07;;;21.90;99.90;;;;;;5054561;28;20640;-69
2023/07/10 02:50:37;;;;;;;17.60;13.10;;;21.90;99.90;;;;;;5054565;28;20651;-69
2023/07/10 02:53:03;;;;;;;15.83;12.10;;;21.90;99.90;;;;;;5054540;28;20212;-69
2023/07/10 02:55:28;;;;;;;15.20;13.07;;;21.80;99.90;;;;;;5054332;28;20198;-69
2023/07/10 02:57:54;;;;;;;15.90;12.60;;;21.90;99.90;;;;;;5054314;28;20175;-70
2023/07/10 03:00:19;;;;;;;18.00;13.40;;;21.80;99.90;;;;;;5054387;28;20165;-70
2023/07/10 03:02:45;;;;;;;23.50;16.27;;;21.80;99.90;;;;;;5053117;28;20185;-69
2023/07/10 03:05:11;;;;;;;19.87;14.27;;;21.80;99.90;;;;;;5054170;28;20325;-70
2023/07/10 03:07:36;;;;;;;16.50;13.60;;;21.80;99.90;;;;;;5054124;28;20290;-70
2023/07/10 03:10:02;;;;;;;18.30;12.50;;;21.70;99.90;;;;;;5054353;28;20170;-70
2023/07/10 03:12:28;;;;;;;16.70;11.83;;;21.70;99.90;;;;;;5054141;28;20190;-69
2023/07/10 03:14:53;;;;;;;16.13;11.33;;;21.60;99.90;;;;;;5054511;28;20194;-69
2023/07/10 03:17:19;;;;;;;11.80;10.60;;;21.60;99.90;;;;;;5053967;28;20258;-69
2023/07/10 03:19:47;;;;;;;17.93;11.93;;;21.60;99.90;;;;;;5054198;28;20198;-69
2023/07/10 03:22:12;;;;;;;12.67;11.37;;;21.60;99.90;;;;;;5052760;28;20414;-69
2023/07/10 03:24:38;;;;;;;15.27;11.60;;;21.60;99.90;;;;;;5053942;28;20446;-69
2023/07/10 03:27:04;;;;;;;12.43;10.87;;;21.60;99.90;;;;;;5053651;28;20202;-69
2023/07/10 03:29:30;;;;;;;19.27;12.47;;;21.60;99.90;;;;;;5053923;28;20167;-69
2023/07/10 03:31:55;;;;;;;18.80;11.47;;;21.60;99.90;;;;;;5053962;28;20412;-69
2023/07/10 03:34:20;;;;;;;13.23;10.27;;;21.60;99.90;;;;;;5053765;28;20199;-70
2023/07/10 03:36:46;;;;;;;11.70;10.10;;;21.60;99.90;;;;;;5052191;28;20167;-70
2023/07/10 03:39:12;;;;;;;16.37;11.07;;;21.60;99.90;;;;;;5054200;28;20167;-69
2023/07/10 03:41:39;;;;;;;12.57;10.33;;;21.60;99.90;;;;;;5053694;28;20159;-70
2023/07/10 03:44:04;;;;;;;10.33;9.10;;;21.50;99.90;;;;;;5053607;28;21025;-70
2023/07/10 03:46:30;;;;;;;17.37;11.37;;;21.60;99.90;;;;;;5053373;28;20504;-69
2023/07/10 03:48:56;;;;;;;15.13;10.13;;;21.60;99.90;;;;;;5053500;28;20197;-70
2023/07/10 03:51:21;;;;;;;18.13;11.03;;;21.60;99.90;;;;;;5053592;28;20281;-70
2023/07/10 03:53:47;;;;;;;15.00;11.20;;;21.60;99.90;;;;;;5052992;28;20194;-69
2023/07/10 03:56:13;;;;;;;16.83;12.80;;;21.60;99.90;;;;;;5053200;28;20159;-69
2023/07/10 03:58:42;;;;;;;18.77;12.20;;;21.60;99.90;;;;;;5053278;28;20429;-71
2023/07/10 04:01:08;;;;;;;21.70;12.90;;;21.60;99.90;;;;;;5053327;28;20679;-69
2023/07/10 04:03:35;;;;;;;15.53;13.13;;;21.60;99.90;;;;;;5053181;28;20408;-70
2023/07/10 04:06:02;;;;;;;21.20;17.47;;;21.60;99.90;;;;;;5052946;28;20421;-69
2023/07/10 04:08:32;;;;;;;26.40;18.50;;;21.60;99.90;;;;;;5052973;28;20445;-69
2023/07/10 04:11:02;;;;;;;22.73;16.10;;;21.60;99.90;;;;;;5053011;28;20752;-69
2023/07/10 04:13:28;;;;;;;22.83;15.83;;;21.60;99.90;;;;;;5053030;28;20500;-70
2023/07/10 04:16:12;;;;;;;23.43;15.17;;;21.50;99.90;;;;;;5052758;28;20841;-68
2023/07/10 04:18:39;;;;;;;20.80;14.23;;;21.60;99.90;;;;;;5052977;28;20179;-69
2023/07/10 04:21:08;;;;;;;17.20;10.73;;;21.60;99.90;;;;;;5052829;28;20432;-68
2023/07/10 04:23:34;;;;;;;16.63;12.30;;;21.60;99.90;;;;;;5052918;28;20875;-69
2023/07/10 04:26:00;;;;;;;15.87;9.97;;;21.60;99.90;;;;;;5052455;28;20484;-69
2023/07/10 04:28:25;;;;;;;13.20;9.70;;;21.60;99.90;;;;;;5052777;28;20198;-70
2023/07/10 04:30:53;;;;;;;14.93;9.70;;;21.60;99.90;;;;;;5052704;28;20242;-69
2023/07/10 04:33:19;;;;;;;12.70;8.60;;;21.60;99.90;;;;;;5052629;28;20182;-69
2023/07/10 04:35:55;;;;;;;10.57;8.67;;;21.60;99.90;;;;;;5052409;28;20406;-69
2023/07/10 04:38:27;;;;;;;11.27;7.53;;;21.60;99.90;;;;;;5052667;28;20520;-69
2023/07/10 04:40:56;;;;;;;8.00;7.20;;;21.60;99.90;;;;;;5052425;28;20948;-69
2023/07/10 04:43:24;;;;;;;9.87;7.90;;;21.60;99.90;;;;;;5052540;28;20404;-69
2023/07/10 04:45:50;;;;;;;10.90;7.17;;;21.60;99.90;;;;;;5052231;28;20398;-69
2023/07/10 04:48:15;;;;;;;6.83;5.33;;;21.60;99.90;;;;;;5052335;28;20420;-68
2023/07/10 04:50:48;;;;;;;11.03;6.13;;;21.60;99.90;;;;;;5052353;28;20405;-69
2023/07/10 04:53:15;;;;;;;6.83;5.57;;;21.60;99.90;;;;;;5052311;28;20561;-69
2023/07/10 04:55:42;;;;;;;7.20;5.37;;;21.50;99.90;;;;;;5051973;28;20398;-68
2023/07/10 04:58:07;;;;;;;6.00;4.80;;;21.50;99.90;;;;;;5052253;28;20430;-68
2023/07/10 05:00:33;;;;;;;13.60;5.30;;;21.50;99.90;;;;;;5052224;28;20767;-69
2023/07/10 05:02:58;;;;;;;5.23;4.60;;;21.50;99.90;;;;;;5052172;28;20250;-69
2023/07/10 05:05:24;;;;;;;7.67;5.00;;;21.50;99.90;;;;;;5051286;28;20224;-70
2023/07/10 05:07:49;;;;;;;8.30;6.43;;;21.40;99.90;;;;;;5052097;28;20211;-70
2023/07/10 05:10:15;;;;;;;7.97;4.57;;;21.40;99.90;;;;;;5052127;28;20621;-70
2023/07/10 05:12:40;;;;;;;4.13;3.73;;;21.40;99.90;;;;;;5052205;28;20213;-70
2023/07/10 05:15:06;;;;;;;6.70;4.80;;;21.30;99.90;;;;;;5051758;28;20253;-70
2023/07/10 05:17:32;;;;;;;9.70;4.27;;;21.30;99.90;;;;;;5051851;28;20187;-70
2023/07/10 05:19:57;;;;;;;6.03;4.43;;;21.40;99.90;;;;;;5051989;28;20492;-69
2023/07/10 05:22:23;;;;;;;4.80;4.30;;;21.40;99.90;;;;;;5052039;28;20171;-70
2023/07/10 05:24:48;;;;;;;4.17;3.33;;;21.40;99.90;;;;;;5051845;28;20174;-70
2023/07/10 05:27:14;;;;;;;4.07;3.70;;;21.40;99.90;;;;;;5051625;28;20690;-69
2023/07/10 05:29:39;;;;;;;9.73;3.67;;;21.40;99.90;;;;;;5051978;28;20217;-69
2023/07/10 05:32:05;;;;;;;8.43;4.47;;;21.40;99.90;;;;;;5051860;28;20543;-70
2023/07/10 05:34:31;;;;;;;7.10;4.37;;;21.50;99.90;;;;;;5051825;28;20190;-70
2023/07/10 05:36:57;;;;;;;7.57;6.77;;;21.50;99.90;;;;;;5051512;28;20167;-69
2023/07/10 05:39:23;;;;;;;17.43;4.10;;;21.40;99.90;;;;;;5051789;28;20245;-68
2023/07/10 05:41:48;;;;;;;4.87;4.30;;;21.50;99.90;;;;;;5051764;28;20894;-69
2023/07/10 05:44:14;;;;;;;10.10;4.50;;;21.60;99.90;;;;;;5051846;28;20234;-69
2023/07/10 05:46:39;;;;;;;6.30;4.37;;;21.90;99.90;;;;;;5051477;28;20644;-69
2023/07/10 05:49:05;;;;;;;8.93;5.30;;;22.00;99.90;;;;;;5051644;28;20194;-69
2023/07/10 05:51:31;;;;;;;8.50;5.10;;;22.20;99.90;;;;;;5051790;28;20912;-69
2023/07/10 05:53:56;;;;;;;5.73;5.20;;;22.30;99.90;;;;;;5051514;28;20226;-69
2023/07/10 05:56:23;;;;;;;13.63;6.33;;;22.30;99.90;;;;;;5051100;28;20193;-70
2023/07/10 05:58:50;;;;;;;8.33;5.77;;;22.10;99.90;;;;;;5051641;28;20179;-69
2023/07/10 06:01:16;;;;;;;6.43;5.30;;;21.80;99.90;;;;;;5051537;28;20489;-70
2023/07/10 06:03:43;;;;;;;5.40;4.20;;;21.80;99.90;;;;;;5051552;28;20428;-69
2023/07/10 06:06:09;;;;;;;10.00;5.20;;;21.90;99.90;;;;;;5051357;28;20217;-69
2023/07/10 06:08:35;;;;;;;6.27;4.33;;;21.90;99.90;;;;;;5051336;28;20850;-69
2023/07/10 06:11:01;;;;;;;7.60;5.03;;;22.10;99.90;;;;;;5050101;28;20550;-69
2023/07/10 06:13:27;;;;;;;8.70;4.43;;;22.60;99.90;;;;;;5051364;28;20406;-69
2023/07/10 06:15:55;;;;;;;7.63;5.27;;;22.90;99.90;;;;;;5051829;28;20413;-69
2023/07/10 06:18:22;;;;;;;7.00;4.93;;;23.10;99.90;;;;;;5055221;28;20187;-71
2023/07/10 06:20:51;;;;;;;7.57;5.13;;;23.50;99.90;;;;;;5055722;28;20812;-72
2023/07/10 06:23:17;;;;;;;7.97;4.00;;;24.30;99.90;;;;;;5055236;28;20406;-72
2023/07/10 06:25:44;;;;;;;5.80;4.30;;;25.30;99.90;;;;;;5055030;28;20420;-72
2023/07/10 06:28:10;;;;;;;6.03;5.10;;;26.30;99.90;;;;;;5055112;28;20797;-72
2023/07/10 06:30:39;;;;;;;5.70;4.40;;;27.30;99.90;;;;;;5055310;28;20405;-72
2023/07/10 06:33:04;;;;;;;8.40;5.03;;;28.30;99.90;;;;;;5055083;28;20170;-73
2023/07/10 06:35:30;;;;;;;7.97;3.73;;;29.40;99.90;;;;;;5054614;28;20452;-72
2023/07/10 06:37:55;;;;;;;12.97;4.00;;;30.40;99.90;;;;;;5054760;28;20285;-73
2023/07/10 06:40:21;;;;;;;8.87;4.63;;;31.20;99.90;;;;;;5054827;28;20167;-72
2023/07/10 06:42:46;;;;;;;5.10;4.10;;;31.80;99.90;;;;;;5054812;28;20258;-73
2023/07/10 06:45:12;;;;;;;6.27;4.53;;;31.90;97.10;;;;;;5054397;28;20202;-73
2023/07/10 06:47:40;;;;;;;9.60;4.47;;;31.40;94.50;;;;;;5054674;28;20695;-72
2023/07/10 06:50:07;;;;;;;4.00;3.57;;;31.10;95.70;;;;;;5054661;28;20189;-72
2023/07/10 06:52:36;;;;;;;6.17;4.63;;;31.00;96.70;;;;;;5054326;28;20405;-73
2023/07/10 06:55:02;;;;;;;5.40;3.90;;;31.00;96.80;;;;;;5056151;28;20456;-73
2023/07/10 06:57:27;;;;;;;4.60;3.90;;;31.60;96.90;;;;;;5057158;28;20417;-73
2023/07/10 06:59:53;;;;;;;3.97;3.37;;;32.60;93.30;;;;;;5054988;28;20171;-73
2023/07/10 07:02:18;;;;;;;5.10;4.00;;;33.50;89.70;;;;;;5054706;28;20178;-73
2023/07/10 07:04:44;;;;;;;4.60;3.57;;;34.20;80.20;;;;;;5056072;28;20172;-73
2023/07/10 07:07:09;;;;;;;3.97;3.20;;;35.00;75.90;;;;;;5055972;28;20260;-74
2023/07/10 07:09:35;;;;;;;5.03;4.40;;;35.20;65.80;;;;;;5056352;28;20516;-74
2023/07/10 07:12:01;;;;;;;5.10;3.77;;;34.80;63.40;;;;;;5055875;28;20411;-73
2023/07/10 07:14:26;;;;;;;4.87;3.90;;;35.00;62.80;;;;;;5054342;28;20197;-73
2023/07/10 07:16:53;;;;;;;4.10;3.77;;;35.30;61.50;;;;;;5054467;28;20171;-73
2023/07/10 07:19:19;;;;;;;4.97;3.57;;;35.30;58.60;;;;;;5054215;28;20636;-73
2023/07/10 07:21:44;;;;;;;3.27;3.00;;;34.90;57.60;;;;;;5054160;28;20404;-73
2023/07/10 07:24:10;;;;;;;3.80;3.40;;;34.60;58.00;;;;;;5054042;28;20274;-73
2023/07/10 07:26:35;;;;;;;4.47;3.43;;;34.20;57.80;;;;;;5053786;28;20218;-73
2023/07/10 07:29:01;;;;;;;6.27;3.57;;;34.40;59.80;;;;;;5053079;28;20289;-73
2023/07/10 07:31:27;;;;;;;4.33;3.30;;;35.10;58.30;;;;;;5053841;28;20175;-73
2023/07/10 07:33:54;;;;;;;4.90;3.07;;;36.10;56.70;;;;;;5053743;28;20599;-73
2023/07/10 07:36:20;;;;;;;3.83;2.80;;;36.90;55.20;;;;;;5053562;28;20163;-73
2023/07/10 07:38:46;;;;;;;6.47;3.23;;;38.00;52.60;;;;;;5052615;28;20779;-73
2023/07/10 07:41:12;;;;;;;5.97;3.50;;;39.10;49.50;;;;;;5053923;28;20167;-73
2023/07/10 07:43:38;;;;;;;3.03;2.60;;;40.10;47.20;;;;;;5053818;28;20179;-73
2023/07/10 07:46:03;;;;;;;2.47;2.20;;;41.10;45.50;;;;;;5053379;28;20413;-73
2023/07/10 07:48:29;;;;;;;4.90;2.93;;;42.20;43.10;;;;;;5053503;28;20725;-74
2023/07/10 07:51:03;;;;;;;3.90;2.47;;;43.00;40.80;;;;;;5053522;28;20175;-74
2023/07/10 07:53:32;;;;;;;3.07;2.60;;;43.70;39.30;;;;;;5053425;28;20235;-73
2023/07/10 07:55:58;;;;;;;3.30;3.00;;;44.30;37.30;;;;;;5053082;28;20437;-74
2023/07/10 07:58:23;;;;;;;3.13;2.67;;;44.70;35.70;;;;;;5054538;28;20396;-74
2023/07/10 08:00:49;;;;;;;2.97;2.67;;;44.80;34.70;;;;;;5055337;28;20664;-74
2023/07/10 08:03:15;;;;;;;5.13;3.20;;;45.00;34.50;;;;;;5054476;28;20223;-73
2023/07/10 08:05:41;;;;;;;4.30;3.17;;;45.10;32.80;;;;;;5052934;28;20894;-73
2023/07/10 08:08:09;;;;;;;2.50;2.30;;;44.70;32.40;;;;;;5052963;28;20206;-73
2023/07/10 08:10:40;;;;;;;2.73;2.47;;;44.00;32.40;;;;;;5053084;28;20224;-73
2023/07/10 08:13:07;;;;;;;3.00;2.60;;;42.90;33.20;;;;;;5053075;28;20382;-73
2023/07/10 08:15:32;;;;;;;4.77;2.70;;;41.50;33.70;;;;;;5052806;28;20445;-73
2023/07/10 08:17:58;;;;;;;3.27;2.33;;;40.50;35.00;;;;;;5053234;28;20483;-73
2023/07/10 08:20:24;;;;;;;2.70;2.47;;;39.60;36.10;;;;;;5053001;28;20388;-73
2023/07/10 08:22:49;;;;;;;3.33;2.43;;;39.70;37.80;;;;;;5052908;28;20250;-73
2023/07/10 08:25:15;;;;;;;2.20;2.00;;;40.70;37.70;;;;;;5052560;28;20175;-73
2023/07/10 08:27:41;;;;;;;4.10;2.60;;;42.10;35.90;;;;;;5052769;28;20214;-73
2023/07/10 08:30:09;;;;;;;2.20;2.00;;;43.70;33.90;;;;;;5052804;28;20254;-73
2023/07/10 08:32:34;;;;;;;2.30;2.10;;;44.30;33.40;;;;;;5052682;28;20759;-74
2023/07/10 08:35:00;;;;;;;3.20;2.90;;;45.40;31.20;;;;;;5052330;28;20432;-74
2023/07/10 08:37:26;;;;;;;2.33;2.13;;;46.40;30.60;;;;;;5052510;28;20264;-74
2023/07/10 08:39:51;;;;;;;2.60;2.37;;;47.40;29.90;;;;;;5051636;28;20170;-74
2023/07/10 08:42:22;;;;;;;6.20;4.20;;;48.50;29.90;;;;;;5052538;28;20170;-74
2023/07/10 08:44:53;;;;;;;2.37;2.20;;;49.60;28.40;;;;;;5052506;28;20195;-74
2023/07/10 08:47:22;;;;;;;2.57;2.10;;;48.90;27.20;;;;;;5052297;28;20399;-74
2023/07/10 08:49:56;;;;;;;2.77;2.57;;;47.90;28.00;;;;;;5052415;28;20458;-74
2023/07/10 08:52:31;;;;;;;2.70;2.33;;;48.10;27.20;;;;;;5052319;28;20380;-74
2023/07/10 08:54:56;;;;;;;4.27;2.40;;;48.70;26.30;;;;;;5052106;28;20828;-74
2023/07/10 08:57:28;;;;;;;2.47;2.27;;;49.00;26.60;;;;;;5052287;28;20421;-75
2023/07/10 09:00:04;;;;;;;2.70;2.50;;;49.80;26.80;;;;;;5052687;28;20636;-74
2023/07/10 09:02:58;;;;;;;3.10;2.30;;;50.90;25.80;;;;;;5052443;28;20421;-75
2023/07/10 09:05:29;;;;;;;2.50;2.30;;;51.90;25.30;;;;;;5051993;28;20377;-75
2023/07/10 09:07:59;;;;;;;2.70;2.50;;;52.70;24.70;;;;;;5052233;28;20483;-75
2023/07/10 09:10:30;;;;;;;2.53;2.43;;;53.30;24.00;;;;;;5052313;28;20733;-75
2023/07/10 09:12:59;;;;;;;2.37;2.23;;;54.20;23.90;;;;;;5052166;28;20432;-75
2023/07/10 09:15:33;;;;;;;2.30;2.17;;;54.80;23.20;;;;;;5054539;28;20496;-76
2023/07/10 09:18:05;;;;;;;3.23;2.70;;;54.80;22.60;;;;;;5055265;28;20436;-76
2023/07/10 09:20:31;;;;;;;2.97;2.77;;;55.30;22.90;;;;;;5055220;28;20519;-76
2023/07/10 09:23:13;;;;;;;2.70;2.53;;;55.60;22.60;;;;;;5055149;28;20436;-75
2023/07/10 09:25:39;;;;;;;2.93;2.73;;;56.10;21.90;;;;;;5054477;28;20258;-76
2023/07/10 09:28:04;;;;;;;2.80;2.60;;;56.40;21.50;;;;;;5052563;28;20500;-75
2023/07/10 09:31:00;;;;;;;3.30;3.00;;;56.50;21.20;;;;;;5051967;28;20658;-75
2023/07/10 09:33:43;;;;;;;3.30;3.00;;;56.90;20.70;;;;;;5051970;28;20162;-75
2023/07/10 09:36:14;;;;;;;3.13;3.03;;;57.10;20.50;;;;;;5051595;28;20413;-75
2023/07/10 09:38:44;;;;;;;2.97;2.77;;;57.20;19.80;;;;;;5051793;28;20425;-75
2023/07/10 09:41:11;;;;;;;3.43;3.13;;;57.20;19.60;;;;;;5051830;28;20413;-75
2023/07/10 09:43:37;;;;;;;2.97;2.77;;;57.20;19.30;;;;;;5051797;28;20439;-76
2023/07/10 09:46:03;;;;;;;2.77;2.67;;;57.00;19.50;;;;;;5051575;28;20426;-75
2023/07/10 09:48:37;;;;;;;2.60;2.50;;;57.20;19.10;;;;;;5051753;28;20420;-75
2023/07/10 09:51:05;;;;;;;3.23;3.03;;;57.50;19.30;;;;;;5052807;28;20174;-75
2023/07/10 09:53:45;;;;;;;2.90;2.80;;;57.50;19.30;;;;;;5054671;28;20409;-76
2023/07/10 09:56:24;;;;;;;2.37;2.27;;;57.30;18.90;;;;;;5055638;28;20462;-73
2023/07/10 09:58:54;;;;;;;3.70;3.33;;;57.10;18.70;;;;;;5055768;28;20494;-73
2023/07/10 10:01:24;;;;;;;2.70;2.60;;;57.30;18.80;;;;;;5055797;28;20401;-73
2023/07/10 10:03:52;;;;;;;2.50;2.40;;;57.20;18.80;;;;;;5055536;28;20471;-74
2023/07/10 10:06:24;;;;;;;3.10;2.90;;;57.20;18.60;;;;;;5055085;28;20454;-74
2023/07/10 10:08:51;;;;;;;3.30;3.10;;;56.90;18.10;;;;;;5055490;28;20554;-73
2023/07/10 10:11:17;;;;;;;2.80;2.60;;;56.70;18.00;;;;;;5055355;28;20397;-76
2023/07/10 10:13:59;;;;;;;3.00;2.80;;;56.70;18.90;;;;;;5055390;28;20408;-76
2023/07/10 10:16:40;;;;;;;3.00;2.80;;;56.40;18.00;;;;;;5055017;28;20411;-73
2023/07/10 10:19:20;;;;;;;3.37;3.17;;;56.60;18.80;;;;;;5053860;28;20432;-74
2023/07/10 10:21:45;;;;;;;3.03;2.83;;;56.40;17.70;;;;;;5055232;28;20813;-74
2023/07/10 10:24:12;;;;;;;3.43;3.13;;;56.40;18.90;;;;;;5055081;28;21246;-74
2023/07/10 10:26:41;;;;;;;3.20;2.97;;;56.90;19.20;;;;;;5055006;28;20389;-74
2023/07/10 10:29:09;;;;;;;2.63;2.43;;;57.30;18.80;;;;;;5054965;28;20465;-75
2023/07/10 10:31:54;;;;;;;2.77;2.63;;;57.80;18.70;;;;;;5055013;28;20542;-74
2023/07/10 10:34:44;;;;;;;3.13;3.00;;;57.50;18.00;;;;;;5054880;28;20401;-74
2023/07/10 10:37:18;;;;;;;3.00;2.80;;;58.10;18.80;;;;;;5054951;28;20815;-74
2023/07/10 10:40:01;;;;;;;3.93;3.70;;;58.70;18.70;;;;;;5054961;28;20405;-75
2023/07/10 10:42:46;;;;;;;4.13;3.83;;;58.90;18.10;;;;;;5054756;28;20484;-74
2023/07/10 10:45:37;;;;;;;5.10;3.70;;;58.90;18.20;;;;;;5054276;28;20452;-74
2023/07/10 10:48:15;;;;;;;3.10;2.90;;;59.00;18.50;;;;;;5054597;28;20470;-74
2023/07/10 10:51:14;;;;;;;3.07;2.87;;;57.70;17.90;;;;;;5054743;28;21117;-74
2023/07/10 10:54:02;;;;;;;3.17;2.93;;;57.50;17.70;;;;;;5054303;28;20409;-74
2023/07/10 10:56:36;;;;;;;2.90;2.70;;;56.50;18.50;;;;;;5054422;28;20400;-74
2023/07/10 10:59:36;;;;;;;2.90;2.70;;;56.40;19.10;;;;;;5054517;28;20413;-74
2023/07/10 11:02:26;;;;;;;3.43;3.00;;;56.70;19.10;;;;;;5053881;28;20444;-74
2023/07/10 11:05:03;;;;;;;3.47;3.37;;;57.50;18.80;;;;;;5054280;28;20452;-74
2023/07/10 11:07:30;;;;;;;4.23;3.33;;;58.40;18.90;;;;;;5054151;28;20535;-75
2023/07/10 11:10:04;;;;;;;3.70;3.50;;;58.80;18.00;;;;;;5054441;28;20493;-75
2023/07/10 11:12:32;;;;;;;4.10;3.90;;;59.50;18.50;;;;;;5054342;28;20396;-75
2023/07/10 11:15:11;;;;;;;3.60;3.40;;;59.90;18.20;;;;;;5054332;28;21047;-75
2023/07/10 11:17:37;;;;;;;4.00;3.80;;;60.50;18.00;;;;;;5052857;28;20528;-75
2023/07/10 11:20:04;;;;;;;3.40;3.20;;;59.80;17.40;;;;;;5054051;28;20500;-74
2023/07/10 11:22:31;;;;;;;4.43;3.80;;;58.60;17.70;;;;;;5054081;28;20174;-74
2023/07/10 11:24:58;;;;;;;6.60;6.10;;;58.20;18.20;;;;;;5053793;28;20570;-74
2023/07/10 11:27:31;;;;;;;4.37;3.97;;;58.40;18.10;;;;;;5053859;28;20420;-74
2023/07/10 11:30:05;;;;;;;3.33;3.13;;;58.90;18.30;;;;;;5053880;28;20401;-75
2023/07/10 11:32:35;;;;;;;4.23;4.03;;;59.10;18.10;;;;;;5053808;28;20404;-74
2023/07/10 11:35:18;;;;;;;5.53;3.90;;;59.40;18.10;;;;;;5053441;28;20466;-74
2023/07/10 11:37:50;;;;;;;4.03;3.73;;;59.50;18.10;;;;;;5053752;28;20508;-74
2023/07/10 11:40:27;;;;;;;3.27;3.10;;;59.90;17.90;;;;;;5053795;28;20455;-74
2023/07/10 11:42:55;;;;;;;4.00;3.67;;;59.60;17.80;;;;;;5053773;28;20504;-74
2023/07/10 11:45:34;;;;;;;3.87;3.67;;;59.20;17.90;;;;;;5053275;28;20472;-74
2023/07/10 11:48:00;;;;;;;3.77;3.57;;;59.20;17.70;;;;;;5053414;28;20416;-74
2023/07/10 11:50:32;;;;;;;3.67;3.37;;;59.30;17.70;;;;;;5053119;28;20463;-75
2023/07/10 11:53:22;;;;;;;3.87;3.53;;;59.60;17.90;;;;;;5053663;28;20208;-73
2023/07/10 11:56:13;;;;;;;4.80;4.50;;;59.60;17.30;;;;;;5051888;28;20466;-74
2023/07/10 11:58:40;;;;;;;3.70;3.50;;;59.90;17.80;;;;;;5053391;28;20429;-74
2023/07/10 12:01:18;;;;;;;4.47;4.07;;;60.30;17.60;;;;;;5053335;28;20472;-74
2023/07/10 12:03:44;;;;;;;4.00;3.70;;;60.30;16.90;;;;;;5053096;28;20906;-73
2023/07/10 12:06:21;;;;;;;2.93;2.73;;;59.90;16.60;;;;;;5052924;28;20454;-73
2023/07/10 12:08:49;;;;;;;3.47;3.17;;;57.90;16.80;;;;;;5053240;28;20221;-73
2023/07/10 12:11:36;;;;;;;3.00;2.80;;;56.80;17.50;;;;;;5053211;28;20393;-73
2023/07/10 12:14:08;;;;;;;3.77;2.40;;;56.20;18.60;;;;;;5052921;28;20419;-74
2023/07/10 12:16:47;;;;;;;3.70;3.10;;;56.70;18.40;;;;;;5052676;28;20408;-75
2023/07/10 12:19:16;;;;;;;3.27;2.97;;;57.20;18.30;;;;;;5052964;28;20401;-73
2023/07/10 12:21:43;;;;;;;3.50;2.67;;;57.00;17.70;;;;;;5052939;28;20408;-73
2023/07/10 12:24:13;;;;;;;2.60;2.40;;;55.20;17.70;;;;;;5052863;28;20507;-73
2023/07/10 12:26:39;;;;;;;2.67;2.57;;;55.00;18.30;;;;;;5052603;28;20385;-73
2023/07/10 12:29:13;;;;;;;2.37;2.27;;;55.40;18.30;;;;;;5053128;28;20424;-73
2023/07/10 12:31:40;;;;;;;2.87;2.63;;;56.00;18.10;;;;;;5052736;28;20190;-73
2023/07/10 12:34:13;;;;;;;3.80;3.50;;;56.70;18.40;;;;;;5052782;28;20401;-74
2023/07/10 12:36:39;;;;;;;2.80;2.60;;;57.20;18.00;;;;;;5052428;28;20393;-73
2023/07/10 12:39:07;;;;;;;3.20;3.00;;;57.20;17.50;;;;;;5052365;28;20929;-73
2023/07/10 12:41:45;;;;;;;2.67;2.57;;;57.20;17.70;;;;;;5052558;28;20853;-73
2023/07/10 12:44:21;;;;;;;2.87;2.67;;;57.10;17.70;;;;;;5052496;28;20495;-73
2023/07/10 12:46:51;;;;;;;2.60;2.50;;;57.20;17.70;;;;;;5052092;28;20404;-73
2023/07/10 12:49:17;;;;;;;2.90;2.70;;;56.90;17.80;;;;;;5052518;28;20404;-73